| time (UTC) | temp F | wind direction | speed MPH | gust MPH | rain 1hr in | rain 24hr in | rain mn in | humidity % | barometer mb |
| 20260509183038 | 60 | 338 | 13.0 | 22.0 | 0.00 | 0.00 | 0.00 | 39 | 1008.5 |
| 20260509181544 | 59 | 330 | 10.0 | 21.0 | 0.00 | 0.00 | 0.00 | 40 | 1008.5 |
| 20260509180036 | 58 | 338 | 7.0 | 24.0 | 0.00 | 0.00 | 0.00 | 40 | 1008.4 |
| 20260509174537 | 59 | 341 | 14.0 | 20.0 | 0.00 | 0.00 | 0.00 | 40 | 1008.1 |
| 20260509173035 | 59 | 328 | 14.0 | 21.0 | 0.00 | 0.00 | 0.00 | 43 | 1008.0 |
| 20260509171533 | 58 | 339 | 14.0 | 22.0 | 0.00 | 0.00 | 0.00 | 44 | 1008.1 |
| 20260509170032 | 58 | 338 | 11.0 | 21.0 | 0.00 | 0.00 | 0.00 | 48 | 1008.2 |
| 20260509164530 | 58 | 333 | 16.0 | 22.0 | 0.00 | 0.00 | 0.00 | 47 | 1008.1 |
| 20260509163036 | 57 | 339 | 11.0 | 20.0 | 0.00 | 0.00 | 0.00 | 54 | 1007.8 |
| 20260509161526 | 57 | 358 | 11.0 | 20.0 | 0.00 | 0.00 | 0.00 | 56 | 1007.7 |
| 20260509160026 | 56 | 343 | 18.0 | 22.0 | 0.00 | 0.00 | 0.00 | 56 | 1007.5 |
| 20260509154523 | 56 | 340 | 16.0 | 20.0 | 0.00 | 0.00 | 0.00 | 60 | 1007.4 |
| 20260509153023 | 56 | 346 | 15.0 | 23.0 | 0.00 | 0.00 | 0.00 | 62 | 1007.2 |
| 20260509151520 | 56 | 340 | 12.0 | 20.0 | 0.00 | 0.00 | 0.00 | 64 | 1007.2 |
| 20260509150024 | 55 | 336 | 12.0 | 19.0 | 0.00 | 0.00 | 0.00 | 65 | 1007.0 |
| 20260509144519 | 55 | 339 | 15.0 | 19.0 | 0.00 | 0.00 | 0.00 | 68 | 1006.8 |
| 20260509143015 | 55 | 338 | 13.0 | 19.0 | 0.00 | 0.00 | 0.00 | 69 | 1006.5 |
| 20260509141528 | 55 | 321 | 10.0 | 14.0 | 0.00 | 0.00 | 0.00 | 69 | 1006.4 |
| 20260509140011 | 55 | 331 | 12.0 | 18.0 | 0.00 | 0.00 | 0.00 | 70 | 1006.3 |
| 20260509134512 | 54 | 316 | 10.0 | 15.0 | 0.00 | 0.00 | 0.00 | 69 | 1006.2 |
| 20260509133006 | 54 | 331 | 10.0 | 20.0 | 0.00 | 0.00 | 0.00 | 67 | 1005.7 |
| 20260509131508 | 54 | 330 | 9.0 | 13.0 | 0.00 | 0.00 | 0.00 | 64 | 1005.7 |
| 20260509130003 | 52 | 316 | 4.0 | 5.0 | 0.00 | 0.00 | 0.00 | 62 | 1005.6 |
| 20260509124500 | 51 | 283 | 3.0 | 4.0 | 0.00 | 0.00 | 0.00 | 60 | 1005.8 |
| 20260509123101 | 51 | 285 | 1.0 | 3.0 | 0.00 | 0.00 | 0.00 | 60 | 1005.1 |
| 20260509121558 | 50 | 297 | 2.0 | 4.0 | 0.00 | 0.00 | 0.00 | 60 | 1005.4 |
| 20260509120057 | 50 | 328 | 3.0 | 5.0 | 0.00 | 0.00 | 0.00 | 59 | 1005.4 |
| 20260509114556 | 50 | 329 | 4.0 | 7.0 | 0.00 | 0.00 | 0.00 | 57 | 1005.1 |
| 20260509113118 | 51 | 323 | 7.0 | 9.0 | 0.00 | 0.00 | 0.00 | 56 | 1004.8 |
| 20260509111600 | 51 | 333 | 8.0 | 11.0 | 0.00 | 0.00 | 0.00 | 55 | 1004.5 |
| 20260509110049 | 50 | 311 | 4.0 | 5.0 | 0.00 | 0.00 | 0.00 | 57 | 1004.1 |
| 20260509104557 | 51 | 293 | 4.0 | 6.0 | 0.00 | 0.00 | 0.00 | 54 | 1003.6 |
| 20260509103056 | 51 | 320 | 7.0 | 16.0 | 0.00 | 0.00 | 0.00 | 54 | 1003.9 |
| 20260509101547 | 47 | 219 | 5.0 | 8.0 | 0.00 | 0.00 | 0.00 | 57 | 1002.6 |
| 20260509100105 | 47 | 231 | 5.0 | 7.0 | 0.00 | 0.00 | 0.00 | 57 | 1002.6 |
| 20260509094551 | 47 | 224 | 5.0 | 7.0 | 0.00 | 0.00 | 0.00 | 57 | 1002.7 |
| 20260509093045 | 46 | 224 | 5.0 | 7.0 | 0.00 | 0.00 | 0.00 | 58 | 1002.8 |
| 20260509091551 | 46 | 231 | 6.0 | 7.0 | 0.00 | 0.00 | 0.00 | 59 | 1002.9 |
| 20260509090042 | 46 | 226 | 6.0 | 8.0 | 0.00 | 0.00 | 0.00 | 58 | 1003.0 |
| 20260509084540 | 46 | 226 | 6.0 | 7.0 | 0.00 | 0.00 | 0.00 | 57 | 1003.0 |
| 20260509083043 | 47 | 230 | 5.0 | 7.0 | 0.00 | 0.00 | 0.00 | 56 | 1003.0 |
| 20260509081535 | 48 | 211 | 7.0 | 9.0 | 0.00 | 0.00 | 0.00 | 54 | 1002.9 |
| 20260509080044 | 48 | 237 | 5.0 | 7.0 | 0.00 | 0.00 | 0.00 | 55 | 1002.7 |
| 20260509074530 | 49 | 233 | 6.0 | 9.0 | 0.00 | 0.00 | 0.00 | 52 | 1003.1 |
| 20260509073026 | 49 | 233 | 6.0 | 8.0 | 0.00 | 0.00 | 0.00 | 52 | 1003.3 |
| 20260509071523 | 50 | 233 | 4.0 | 5.0 | 0.00 | 0.00 | 0.00 | 51 | 1003.4 |
| 20260509070023 | 50 | 231 | 4.0 | 6.0 | 0.00 | 0.00 | 0.00 | 51 | 1003.6 |
| 20260509064528 | 50 | 233 | 4.0 | 6.0 | 0.00 | 0.00 | 0.00 | 50 | 1003.5 |
| 20260509063017 | 51 | 237 | 3.0 | 6.0 | 0.00 | 0.00 | 0.00 | 47 | 1003.8 |
| 20260509061532 | 54 | 322 | 2.0 | 3.0 | 0.00 | 0.00 | 0.00 | 45 | 1004.0 |
| 20260509060012 | 54 | 322 | 2.0 | 3.0 | 0.00 | 0.00 | 0.00 | 44 | 1004.2 |
| 20260509054511 | 54 | 322 | 2.0 | 3.0 | 0.00 | 0.00 | 0.00 | 43 | 1004.1 |
| 20260509053021 | 55 | 323 | 2.0 | 4.0 | 0.00 | 0.00 | 0.00 | 44 | 1004.1 |
| 20260509051505 | 56 | 325 | 2.0 | 3.0 | 0.00 | 0.00 | 0.00 | 43 | 1004.2 |
| 20260509050002 | 57 | 326 | 3.0 | 5.0 | 0.00 | 0.00 | 0.00 | 40 | 1004.2 |
| 20260509044501 | 58 | 331 | 4.0 | 5.0 | 0.00 | 0.00 | 0.00 | 40 | 1004.3 |
| 20260509043104 | 59 | 331 | 3.0 | 7.0 | 0.00 | 0.00 | 0.00 | 39 | 1004.2 |
| 20260509041559 | 59 | 333 | 5.0 | 7.0 | 0.00 | 0.00 | 0.00 | 38 | 1004.2 |
| 20260509040100 | 60 | 336 | 6.0 | 8.0 | 0.00 | 0.00 | 0.00 | 37 | 1004.4 |
| 20260509034604 | 60 | 331 | 4.0 | 6.0 | 0.00 | 0.00 | 0.00 | 37 | 1004.3 |
| 20260509033058 | 61 | 330 | 5.0 | 9.0 | 0.00 | 0.00 | 0.00 | 35 | 1004.2 |
| 20260509031557 | 61 | 330 | 5.0 | 8.0 | 0.00 | 0.00 | 0.00 | 35 | 1004.1 |
| 20260509030056 | 62 | 330 | 4.0 | 7.0 | 0.00 | 0.00 | 0.00 | 35 | 1003.9 |
| 20260509024556 | 62 | 338 | 6.0 | 9.0 | 0.00 | 0.00 | 0.00 | 35 | 1003.8 |
| 20260509023055 | 63 | 335 | 5.0 | 8.0 | 0.00 | 0.00 | 0.00 | 35 | 1003.5 |
| 20260509021554 | 64 | 326 | 5.0 | 8.0 | 0.00 | 0.00 | 0.00 | 35 | 1003.3 |
| 20260509020054 | 65 | 340 | 6.0 | 10.0 | 0.00 | 0.00 | 0.00 | 35 | 1003.0 |
| 20260509014554 | 65 | 330 | 5.0 | 8.0 | 0.00 | 0.00 | 0.00 | 35 | 1002.9 |
| 20260509013053 | 67 | 335 | 6.0 | 10.0 | 0.00 | 0.00 | 0.00 | 34 | 1002.7 |
| 20260509011552 | 68 | 328 | 9.0 | 12.0 | 0.00 | 0.00 | 0.00 | 32 | 1002.5 |
| 20260509010051 | 69 | 336 | 8.0 | 13.0 | 0.00 | 0.00 | 0.00 | 32 | 1002.5 |
| 20260509004551 | 70 | 337 | 10.0 | 17.0 | 0.00 | 0.00 | 0.00 | 31 | 1002.4 |
| 20260509003050 | 71 | 326 | 10.0 | 16.0 | 0.00 | 0.00 | 0.00 | 31 | 1002.3 |
| 20260509001549 | 71 | 328 | 12.0 | 16.0 | 0.00 | 0.00 | 0.00 | 30 | 1002.3 |
| 20260509000049 | 71 | 337 | 9.0 | 16.0 | 0.00 | 0.00 | 0.00 | 30 | 1002.2 |
| 20260508234553 | 72 | 290 | 7.0 | 17.0 | 0.00 | 0.00 | 0.00 | 28 | 1002.1 |
| 20260508233049 | 72 | 300 | 8.0 | 11.0 | 0.00 | 0.00 | 0.00 | 27 | 1002.1 |
| 20260508231613 | 72 | 308 | 6.0 | 10.0 | 0.00 | 0.00 | 0.00 | 26 | 1002.2 |
| 20260508230056 | 72 | 283 | 8.0 | 11.0 | 0.00 | 0.00 | 0.00 | 26 | 1002.4 |
| 20260508224542 | 72 | 291 | 8.0 | 14.0 | 0.00 | 0.00 | 0.00 | 26 | 1002.4 |
| 20260508223045 | 72 | 316 | 7.0 | 15.0 | 0.00 | 0.00 | 0.00 | 26 | 1002.6 |
| 20260508221541 | 73 | 316 | 4.0 | 7.0 | 0.00 | 0.00 | 0.00 | 26 | 1002.6 |
| 20260508220043 | 71 | 309 | 3.0 | 10.0 | 0.00 | 0.00 | 0.00 | 26 | 1002.8 |
| 20260508214550 | 72 | 278 | 6.0 | 10.0 | 0.00 | 0.00 | 0.00 | 26 | 1003.0 |
| 20260508213046 | 73 | 312 | 8.0 | 12.0 | 0.00 | 0.00 | 0.00 | 26 | 1003.3 |
| 20260508211540 | 71 | 320 | 8.0 | 14.0 | 0.00 | 0.00 | 0.00 | 26 | 1003.5 |
| 20260508210033 | 71 | 294 | 8.0 | 13.0 | 0.00 | 0.00 | 0.00 | 25 | 1003.6 |
| 20260508204533 | 71 | 319 | 8.0 | 11.0 | 0.00 | 0.00 | 0.00 | 25 | 1003.7 |
| 20260508203029 | 71 | 330 | 8.0 | 19.0 | 0.00 | 0.00 | 0.00 | 25 | 1004.0 |
| 20260508201527 | 71 | 329 | 6.0 | 12.0 | 0.00 | 0.00 | 0.00 | 24 | 1004.2 |
| 20260508200030 | 72 | 287 | 11.0 | 16.0 | 0.00 | 0.00 | 0.00 | 23 | 1004.5 |
| 20260508194525 | 72 | 281 | 4.0 | 12.0 | 0.00 | 0.00 | 0.00 | 23 | 1004.7 |
| 20260508193028 | 72 | 280 | 9.0 | 13.0 | 0.00 | 0.00 | 0.00 | 23 | 1005.0 |
| 20260508191534 | 70 | 290 | 7.0 | 12.0 | 0.00 | 0.00 | 0.00 | 23 | 1005.2 |
| 20260508190027 | 71 | 274 | 6.0 | 10.0 | 0.00 | 0.00 | 0.00 | 24 | 1005.5 |
| 20260508184522 | 71 | 285 | 6.0 | 10.0 | 0.00 | 0.00 | 0.00 | 24 | 1005.6 |